sensor_id;sensor_type;location;lat;lon;timestamp;P1;durP1;ratioP1;P2;durP2;ratioP2
56481;SDS011;42384;45.186;19.958;2024-01-06T00:02:24;21.90;;;11.77;;
56481;SDS011;42384;45.186;19.958;2024-01-06T00:04:50;18.20;;;10.70;;
56481;SDS011;42384;45.186;19.958;2024-01-06T00:07:16;21.45;;;10.93;;
56481;SDS011;42384;45.186;19.958;2024-01-06T00:09:43;19.30;;;10.27;;
56481;SDS011;42384;45.186;19.958;2024-01-06T00:12:09;17.58;;;9.60;;
56481;SDS011;42384;45.186;19.958;2024-01-06T00:14:35;17.70;;;9.67;;
56481;SDS011;42384;45.186;19.958;2024-01-06T00:17:01;17.00;;;8.98;;
56481;SDS011;42384;45.186;19.958;2024-01-06T00:19:27;14.30;;;9.05;;
56481;SDS011;42384;45.186;19.958;2024-01-06T00:21:54;25.05;;;9.60;;
56481;SDS011;42384;45.186;19.958;2024-01-06T00:24:20;16.73;;;7.97;;
56481;SDS011;42384;45.186;19.958;2024-01-06T00:26:46;17.17;;;9.50;;
56481;SDS011;42384;45.186;19.958;2024-01-06T00:29:13;18.13;;;9.47;;
56481;SDS011;42384;45.186;19.958;2024-01-06T00:31:40;19.38;;;9.52;;
56481;SDS011;42384;45.186;19.958;2024-01-06T00:34:07;20.10;;;8.93;;
56481;SDS011;42384;45.186;19.958;2024-01-06T00:36:33;16.65;;;8.80;;
56481;SDS011;42384;45.186;19.958;2024-01-06T00:39:00;14.48;;;8.00;;
56481;SDS011;42384;45.186;19.958;2024-01-06T00:41:27;17.20;;;8.63;;
56481;SDS011;42384;45.186;19.958;2024-01-06T00:43:53;15.30;;;8.15;;
56481;SDS011;42384;45.186;19.958;2024-01-06T00:46:20;16.63;;;8.82;;
56481;SDS011;42384;45.186;19.958;2024-01-06T00:48:47;19.05;;;9.10;;
56481;SDS011;42384;45.186;19.958;2024-01-06T00:51:13;15.75;;;8.82;;
56481;SDS011;42384;45.186;19.958;2024-01-06T00:53:40;20.85;;;9.95;;
56481;SDS011;42384;45.186;19.958;2024-01-06T00:56:07;18.33;;;9.70;;
56481;SDS011;42384;45.186;19.958;2024-01-06T00:58:33;18.98;;;9.35;;
56481;SDS011;42384;45.186;19.958;2024-01-06T01:01:00;16.98;;;8.63;;
56481;SDS011;42384;45.186;19.958;2024-01-06T01:03:27;25.00;;;12.05;;
56481;SDS011;42384;45.186;19.958;2024-01-06T01:05:53;22.85;;;12.23;;
56481;SDS011;42384;45.186;19.958;2024-01-06T01:08:20;22.50;;;10.90;;
56481;SDS011;42384;45.186;19.958;2024-01-06T01:10:46;17.92;;;9.73;;
56481;SDS011;42384;45.186;19.958;2024-01-06T01:13:13;13.13;;;8.00;;
56481;SDS011;42384;45.186;19.958;2024-01-06T01:15:40;15.32;;;8.95;;
56481;SDS011;42384;45.186;19.958;2024-01-06T01:18:06;17.43;;;8.70;;
56481;SDS011;42384;45.186;19.958;2024-01-06T01:20:32;22.87;;;10.67;;
56481;SDS011;42384;45.186;19.958;2024-01-06T01:22:58;17.13;;;9.10;;
56481;SDS011;42384;45.186;19.958;2024-01-06T01:25:25;16.83;;;9.10;;
56481;SDS011;42384;45.186;19.958;2024-01-06T01:27:51;16.15;;;8.48;;
56481;SDS011;42384;45.186;19.958;2024-01-06T01:30:17;16.67;;;7.93;;
56481;SDS011;42384;45.186;19.958;2024-01-06T01:32:43;16.97;;;8.70;;
56481;SDS011;42384;45.186;19.958;2024-01-06T01:35:10;15.20;;;8.13;;
56481;SDS011;42384;45.186;19.958;2024-01-06T01:37:36;12.67;;;7.63;;
56481;SDS011;42384;45.186;19.958;2024-01-06T01:40:02;19.52;;;9.02;;
56481;SDS011;42384;45.186;19.958;2024-01-06T01:42:28;15.40;;;7.30;;
56481;SDS011;42384;45.186;19.958;2024-01-06T01:44:54;15.83;;;8.40;;
56481;SDS011;42384;45.186;19.958;2024-01-06T01:47:21;14.43;;;8.00;;
56481;SDS011;42384;45.186;19.958;2024-01-06T01:49:47;15.13;;;8.38;;
56481;SDS011;42384;45.186;19.958;2024-01-06T01:52:13;18.27;;;8.25;;
56481;SDS011;42384;45.186;19.958;2024-01-06T01:57:07;19.38;;;9.02;;
56481;SDS011;42384;45.186;19.958;2024-01-06T01:59:33;19.95;;;8.98;;
56481;SDS011;42384;45.186;19.958;2024-01-06T02:01:59;15.30;;;8.70;;
56481;SDS011;42384;45.186;19.958;2024-01-06T02:04:27;21.77;;;9.25;;
56481;SDS011;42384;45.186;19.958;2024-01-06T02:06:53;15.82;;;7.28;;
56481;SDS011;42384;45.186;19.958;2024-01-06T02:09:20;13.88;;;8.50;;
56481;SDS011;42384;45.186;19.958;2024-01-06T02:11:48;17.98;;;7.70;;
56481;SDS011;42384;45.186;19.958;2024-01-06T02:14:14;17.42;;;7.55;;
56481;SDS011;42384;45.186;19.958;2024-01-06T02:16:40;14.70;;;7.93;;
56481;SDS011;42384;45.186;19.958;2024-01-06T02:19:07;13.30;;;8.23;;
56481;SDS011;42384;45.186;19.958;2024-01-06T02:21:36;15.25;;;8.10;;
56481;SDS011;42384;45.186;19.958;2024-01-06T02:24:06;15.30;;;8.60;;
56481;SDS011;42384;45.186;19.958;2024-01-06T02:26:32;19.07;;;8.27;;
56481;SDS011;42384;45.186;19.958;2024-01-06T02:28:58;19.93;;;7.97;;
56481;SDS011;42384;45.186;19.958;2024-01-06T02:31:24;18.48;;;7.85;;
56481;SDS011;42384;45.186;19.958;2024-01-06T02:33:51;13.57;;;6.53;;
56481;SDS011;42384;45.186;19.958;2024-01-06T02:36:17;13.03;;;6.50;;
56481;SDS011;42384;45.186;19.958;2024-01-06T02:38:43;11.63;;;6.67;;
56481;SDS011;42384;45.186;19.958;2024-01-06T02:41:09;13.17;;;6.87;;
56481;SDS011;42384;45.186;19.958;2024-01-06T02:43:35;11.30;;;7.03;;
56481;SDS011;42384;45.186;19.958;2024-01-06T02:46:02;12.80;;;6.45;;
56481;SDS011;42384;45.186;19.958;2024-01-06T02:48:28;11.18;;;6.35;;
56481;SDS011;42384;45.186;19.958;2024-01-06T02:50:56;9.85;;;5.45;;
56481;SDS011;42384;45.186;19.958;2024-01-06T02:53:22;11.50;;;5.80;;
56481;SDS011;42384;45.186;19.958;2024-01-06T02:55:48;14.53;;;6.03;;
56481;SDS011;42384;45.186;19.958;2024-01-06T02:58:14;9.53;;;5.50;;
56481;SDS011;42384;45.186;19.958;2024-01-06T03:00:41;11.43;;;5.55;;
56481;SDS011;42384;45.186;19.958;2024-01-06T03:03:07;17.40;;;7.67;;
56481;SDS011;42384;45.186;19.958;2024-01-06T03:05:33;13.20;;;6.63;;
56481;SDS011;42384;45.186;19.958;2024-01-06T03:07:59;10.30;;;5.30;;
56481;SDS011;42384;45.186;19.958;2024-01-06T03:10:26;10.38;;;5.63;;
56481;SDS011;42384;45.186;19.958;2024-01-06T03:12:52;10.70;;;5.70;;
56481;SDS011;42384;45.186;19.958;2024-01-06T03:15:19;12.75;;;5.80;;
56481;SDS011;42384;45.186;19.958;2024-01-06T03:17:45;11.27;;;5.67;;
56481;SDS011;42384;45.186;19.958;2024-01-06T03:20:11;14.23;;;5.47;;
56481;SDS011;42384;45.186;19.958;2024-01-06T03:22:37;8.73;;;4.73;;
56481;SDS011;42384;45.186;19.958;2024-01-06T03:25:04;12.87;;;5.70;;
56481;SDS011;42384;45.186;19.958;2024-01-06T03:27:31;10.35;;;5.40;;
56481;SDS011;42384;45.186;19.958;2024-01-06T03:29:57;9.83;;;5.87;;
56481;SDS011;42384;45.186;19.958;2024-01-06T03:32:24;10.40;;;5.35;;
56481;SDS011;42384;45.186;19.958;2024-01-06T03:34:50;12.00;;;5.67;;
56481;SDS011;42384;45.186;19.958;2024-01-06T03:37:16;12.30;;;5.77;;
56481;SDS011;42384;45.186;19.958;2024-01-06T03:39:42;11.13;;;5.97;;
56481;SDS011;42384;45.186;19.958;2024-01-06T03:42:09;11.77;;;5.80;;
56481;SDS011;42384;45.186;19.958;2024-01-06T03:44:35;10.33;;;6.53;;
56481;SDS011;42384;45.186;19.958;2024-01-06T03:47:01;12.13;;;5.40;;
56481;SDS011;42384;45.186;19.958;2024-01-06T03:49:27;11.70;;;5.57;;
56481;SDS011;42384;45.186;19.958;2024-01-06T03:51:54;13.43;;;6.57;;
56481;SDS011;42384;45.186;19.958;2024-01-06T03:54:20;10.83;;;5.83;;
56481;SDS011;42384;45.186;19.958;2024-01-06T03:56:46;12.07;;;6.20;;
56481;SDS011;42384;45.186;19.958;2024-01-06T03:59:12;11.77;;;5.77;;
56481;SDS011;42384;45.186;19.958;2024-01-06T04:01:38;12.47;;;5.60;;
56481;SDS011;42384;45.186;19.958;2024-01-06T04:04:05;9.00;;;5.20;;
56481;SDS011;42384;45.186;19.958;2024-01-06T04:06:31;12.38;;;6.13;;
56481;SDS011;42384;45.186;19.958;2024-01-06T04:08:58;10.98;;;5.25;;
56481;SDS011;42384;45.186;19.958;2024-01-06T04:11:24;11.98;;;5.43;;
56481;SDS011;42384;45.186;19.958;2024-01-06T04:13:50;8.53;;;4.67;;
56481;SDS011;42384;45.186;19.958;2024-01-06T04:16:17;9.20;;;4.63;;
56481;SDS011;42384;45.186;19.958;2024-01-06T04:18:43;10.33;;;5.20;;
56481;SDS011;42384;45.186;19.958;2024-01-06T04:21:09;10.17;;;5.20;;
56481;SDS011;42384;45.186;19.958;2024-01-06T04:23:36;8.65;;;4.60;;
56481;SDS011;42384;45.186;19.958;2024-01-06T04:26:02;17.77;;;7.87;;
56481;SDS011;42384;45.186;19.958;2024-01-06T04:28:30;8.68;;;4.68;;
56481;SDS011;42384;45.186;19.958;2024-01-06T04:30:56;13.48;;;5.35;;
56481;SDS011;42384;45.186;19.958;2024-01-06T04:33:22;8.67;;;4.90;;
56481;SDS011;42384;45.186;19.958;2024-01-06T04:35:49;9.38;;;4.32;;
56481;SDS011;42384;45.186;19.958;2024-01-06T04:38:15;9.25;;;4.40;;
56481;SDS011;42384;45.186;19.958;2024-01-06T04:40:41;11.20;;;4.45;;
56481;SDS011;42384;45.186;19.958;2024-01-06T04:43:08;15.52;;;8.07;;
56481;SDS011;42384;45.186;19.958;2024-01-06T04:45:34;5.90;;;4.03;;
56481;SDS011;42384;45.186;19.958;2024-01-06T04:48:02;10.10;;;4.45;;
56481;SDS011;42384;45.186;19.958;2024-01-06T04:50:29;8.20;;;4.38;;
56481;SDS011;42384;45.186;19.958;2024-01-06T04:52:55;6.50;;;3.77;;
56481;SDS011;42384;45.186;19.958;2024-01-06T04:55:21;10.18;;;4.88;;
56481;SDS011;42384;45.186;19.958;2024-01-06T04:57:48;9.33;;;5.00;;
56481;SDS011;42384;45.186;19.958;2024-01-06T05:00:15;7.68;;;4.28;;
56481;SDS011;42384;45.186;19.958;2024-01-06T05:02:41;8.55;;;4.53;;
56481;SDS011;42384;45.186;19.958;2024-01-06T05:05:07;11.23;;;7.10;;
56481;SDS011;42384;45.186;19.958;2024-01-06T05:07:34;9.00;;;3.80;;
56481;SDS011;42384;45.186;19.958;2024-01-06T05:10:00;11.77;;;4.50;;
56481;SDS011;42384;45.186;19.958;2024-01-06T05:12:27;11.32;;;4.85;;
56481;SDS011;42384;45.186;19.958;2024-01-06T05:14:53;12.23;;;5.50;;
56481;SDS011;42384;45.186;19.958;2024-01-06T05:17:20;9.63;;;4.10;;
56481;SDS011;42384;45.186;19.958;2024-01-06T05:19:46;15.23;;;7.23;;
56481;SDS011;42384;45.186;19.958;2024-01-06T05:22:12;8.77;;;4.90;;
56481;SDS011;42384;45.186;19.958;2024-01-06T05:24:38;10.43;;;4.93;;
56481;SDS011;42384;45.186;19.958;2024-01-06T05:27:05;12.30;;;6.47;;
56481;SDS011;42384;45.186;19.958;2024-01-06T05:29:31;8.95;;;5.28;;
56481;SDS011;42384;45.186;19.958;2024-01-06T05:31:57;12.77;;;6.60;;
56481;SDS011;42384;45.186;19.958;2024-01-06T05:34:24;8.25;;;3.75;;
56481;SDS011;42384;45.186;19.958;2024-01-06T05:36:50;12.27;;;5.78;;
56481;SDS011;42384;45.186;19.958;2024-01-06T05:39:16;6.95;;;3.13;;
56481;SDS011;42384;45.186;19.958;2024-01-06T05:41:42;8.90;;;3.28;;
56481;SDS011;42384;45.186;19.958;2024-01-06T05:44:09;7.20;;;3.35;;
56481;SDS011;42384;45.186;19.958;2024-01-06T05:46:35;13.13;;;6.47;;
56481;SDS011;42384;45.186;19.958;2024-01-06T05:49:02;8.52;;;3.60;;
56481;SDS011;42384;45.186;19.958;2024-01-06T05:51:28;9.43;;;4.53;;
56481;SDS011;42384;45.186;19.958;2024-01-06T05:53:54;6.97;;;3.23;;
56481;SDS011;42384;45.186;19.958;2024-01-06T05:56:27;7.07;;;3.53;;
56481;SDS011;42384;45.186;19.958;2024-01-06T05:58:53;9.30;;;3.33;;
56481;SDS011;42384;45.186;19.958;2024-01-06T06:01:20;9.43;;;3.38;;
56481;SDS011;42384;45.186;19.958;2024-01-06T06:03:47;7.47;;;3.05;;
56481;SDS011;42384;45.186;19.958;2024-01-06T06:06:15;7.90;;;3.35;;
56481;SDS011;42384;45.186;19.958;2024-01-06T06:08:42;12.13;;;3.53;;
56481;SDS011;42384;45.186;19.958;2024-01-06T06:13:38;7.18;;;3.28;;
56481;SDS011;42384;45.186;19.958;2024-01-06T06:16:06;10.60;;;3.78;;
56481;SDS011;42384;45.186;19.958;2024-01-06T06:18:33;7.15;;;3.83;;
56481;SDS011;42384;45.186;19.958;2024-01-06T06:20:59;8.68;;;4.03;;
56481;SDS011;42384;45.186;19.958;2024-01-06T06:23:28;6.78;;;3.45;;
56481;SDS011;42384;45.186;19.958;2024-01-06T06:25:54;8.68;;;3.72;;
56481;SDS011;42384;45.186;19.958;2024-01-06T06:28:20;6.13;;;4.10;;
56481;SDS011;42384;45.186;19.958;2024-01-06T06:30:46;7.80;;;3.77;;
56481;SDS011;42384;45.186;19.958;2024-01-06T06:33:13;10.80;;;4.37;;
56481;SDS011;42384;45.186;19.958;2024-01-06T06:35:39;6.72;;;4.00;;
56481;SDS011;42384;45.186;19.958;2024-01-06T06:38:05;8.80;;;4.00;;
56481;SDS011;42384;45.186;19.958;2024-01-06T06:40:32;6.87;;;3.47;;
56481;SDS011;42384;45.186;19.958;2024-01-06T06:42:58;7.70;;;4.05;;
56481;SDS011;42384;45.186;19.958;2024-01-06T06:45:24;13.27;;;5.97;;
56481;SDS011;42384;45.186;19.958;2024-01-06T06:47:51;9.23;;;4.88;;
56481;SDS011;42384;45.186;19.958;2024-01-06T06:50:17;7.57;;;4.38;;
56481;SDS011;42384;45.186;19.958;2024-01-06T06:52:45;8.90;;;5.07;;
56481;SDS011;42384;45.186;19.958;2024-01-06T06:57:38;14.75;;;4.75;;
56481;SDS011;42384;45.186;19.958;2024-01-06T07:00:05;9.40;;;3.90;;
56481;SDS011;42384;45.186;19.958;2024-01-06T07:02:32;8.73;;;3.75;;
56481;SDS011;42384;45.186;19.958;2024-01-06T07:04:59;6.72;;;3.47;;
56481;SDS011;42384;45.186;19.958;2024-01-06T07:07:25;9.30;;;4.60;;
56481;SDS011;42384;45.186;19.958;2024-01-06T07:09:51;7.80;;;3.70;;
56481;SDS011;42384;45.186;19.958;2024-01-06T07:12:18;11.00;;;3.97;;
56481;SDS011;42384;45.186;19.958;2024-01-06T07:14:44;7.17;;;3.40;;
56481;SDS011;42384;45.186;19.958;2024-01-06T07:17:10;8.70;;;4.97;;
56481;SDS011;42384;45.186;19.958;2024-01-06T07:19:37;9.98;;;4.00;;
56481;SDS011;42384;45.186;19.958;2024-01-06T07:22:04;8.55;;;3.63;;
56481;SDS011;42384;45.186;19.958;2024-01-06T07:24:30;9.65;;;3.65;;
56481;SDS011;42384;45.186;19.958;2024-01-06T07:26:56;8.88;;;3.72;;
56481;SDS011;42384;45.186;19.958;2024-01-06T07:29:23;7.43;;;3.70;;
56481;SDS011;42384;45.186;19.958;2024-01-06T07:31:49;7.45;;;3.22;;
56481;SDS011;42384;45.186;19.958;2024-01-06T07:34:15;8.87;;;4.57;;
56481;SDS011;42384;45.186;19.958;2024-01-06T07:36:42;6.97;;;3.40;;
56481;SDS011;42384;45.186;19.958;2024-01-06T07:39:08;8.60;;;4.17;;
56481;SDS011;42384;45.186;19.958;2024-01-06T07:41:34;9.07;;;4.03;;
56481;SDS011;42384;45.186;19.958;2024-01-06T07:44:00;7.80;;;4.27;;
56481;SDS011;42384;45.186;19.958;2024-01-06T07:46:28;9.48;;;3.97;;
56481;SDS011;42384;45.186;19.958;2024-01-06T07:48:55;9.18;;;4.10;;
56481;SDS011;42384;45.186;19.958;2024-01-06T07:51:21;8.80;;;4.33;;
56481;SDS011;42384;45.186;19.958;2024-01-06T07:53:47;8.33;;;4.20;;
56481;SDS011;42384;45.186;19.958;2024-01-06T07:56:13;10.03;;;4.17;;
56481;SDS011;42384;45.186;19.958;2024-01-06T07:58:40;10.30;;;4.53;;
56481;SDS011;42384;45.186;19.958;2024-01-06T08:01:06;9.70;;;4.45;;
56481;SDS011;42384;45.186;19.958;2024-01-06T08:03:32;5.40;;;3.00;;
56481;SDS011;42384;45.186;19.958;2024-01-06T08:05:59;9.98;;;3.53;;
56481;SDS011;42384;45.186;19.958;2024-01-06T08:08:25;10.07;;;4.85;;
56481;SDS011;42384;45.186;19.958;2024-01-06T08:10:52;9.75;;;4.22;;
56481;SDS011;42384;45.186;19.958;2024-01-06T08:13:18;6.97;;;3.90;;
56481;SDS011;42384;45.186;19.958;2024-01-06T08:15:44;9.20;;;4.07;;
56481;SDS011;42384;45.186;19.958;2024-01-06T08:18:10;8.40;;;3.93;;
56481;SDS011;42384;45.186;19.958;2024-01-06T08:20:37;10.43;;;4.13;;
56481;SDS011;42384;45.186;19.958;2024-01-06T08:23:03;7.30;;;3.77;;
56481;SDS011;42384;45.186;19.958;2024-01-06T08:25:29;10.25;;;3.90;;
56481;SDS011;42384;45.186;19.958;2024-01-06T08:27:55;7.38;;;3.75;;
56481;SDS011;42384;45.186;19.958;2024-01-06T08:30:22;9.55;;;3.72;;
56481;SDS011;42384;45.186;19.958;2024-01-06T08:32:48;7.00;;;3.85;;
56481;SDS011;42384;45.186;19.958;2024-01-06T08:35:15;7.87;;;4.10;;
56481;SDS011;42384;45.186;19.958;2024-01-06T08:40:08;11.85;;;5.10;;
56481;SDS011;42384;45.186;19.958;2024-01-06T08:42:35;12.52;;;5.47;;
56481;SDS011;42384;45.186;19.958;2024-01-06T08:45:01;10.77;;;5.73;;
56481;SDS011;42384;45.186;19.958;2024-01-06T08:47:27;12.63;;;5.93;;
56481;SDS011;42384;45.186;19.958;2024-01-06T08:49:54;15.83;;;8.53;;
56481;SDS011;42384;45.186;19.958;2024-01-06T08:52:20;13.03;;;6.47;;
56481;SDS011;42384;45.186;19.958;2024-01-06T08:54:46;12.50;;;6.38;;
56481;SDS011;42384;45.186;19.958;2024-01-06T08:57:14;13.45;;;6.65;;
56481;SDS011;42384;45.186;19.958;2024-01-06T08:59:40;16.17;;;7.50;;
56481;SDS011;42384;45.186;19.958;2024-01-06T09:02:07;14.70;;;6.43;;
56481;SDS011;42384;45.186;19.958;2024-01-06T09:04:33;15.63;;;7.18;;
56481;SDS011;42384;45.186;19.958;2024-01-06T09:06:59;12.18;;;5.28;;
56481;SDS011;42384;45.186;19.958;2024-01-06T09:09:26;8.93;;;4.50;;
56481;SDS011;42384;45.186;19.958;2024-01-06T09:11:53;12.95;;;5.35;;
56481;SDS011;42384;45.186;19.958;2024-01-06T09:14:19;10.63;;;5.60;;
56481;SDS011;42384;45.186;19.958;2024-01-06T09:16:46;11.23;;;5.60;;
56481;SDS011;42384;45.186;19.958;2024-01-06T09:19:12;13.07;;;5.95;;
56481;SDS011;42384;45.186;19.958;2024-01-06T09:21:38;9.65;;;5.43;;
56481;SDS011;42384;45.186;19.958;2024-01-06T09:24:04;11.37;;;5.53;;
56481;SDS011;42384;45.186;19.958;2024-01-06T09:26:34;10.48;;;5.05;;
56481;SDS011;42384;45.186;19.958;2024-01-06T09:29:00;10.63;;;5.47;;
56481;SDS011;42384;45.186;19.958;2024-01-06T09:31:27;9.40;;;6.05;;
56481;SDS011;42384;45.186;19.958;2024-01-06T09:33:53;10.50;;;5.43;;
56481;SDS011;42384;45.186;19.958;2024-01-06T09:36:19;10.15;;;5.57;;
56481;SDS011;42384;45.186;19.958;2024-01-06T09:38:45;12.52;;;5.82;;
56481;SDS011;42384;45.186;19.958;2024-01-06T09:41:12;9.57;;;4.95;;
56481;SDS011;42384;45.186;19.958;2024-01-06T09:43:38;14.05;;;5.63;;
56481;SDS011;42384;45.186;19.958;2024-01-06T09:46:15;10.18;;;5.97;;
56481;SDS011;42384;45.186;19.958;2024-01-06T09:48:43;11.05;;;5.57;;
56481;SDS011;42384;45.186;19.958;2024-01-06T09:51:11;12.55;;;6.00;;
56481;SDS011;42384;45.186;19.958;2024-01-06T09:53:42;11.80;;;5.88;;
56481;SDS011;42384;45.186;19.958;2024-01-06T09:56:08;12.80;;;5.95;;
56481;SDS011;42384;45.186;19.958;2024-01-06T09:58:34;12.40;;;6.13;;
56481;SDS011;42384;45.186;19.958;2024-01-06T10:03:27;11.57;;;5.85;;
56481;SDS011;42384;45.186;19.958;2024-01-06T10:05:54;11.90;;;6.72;;
56481;SDS011;42384;45.186;19.958;2024-01-06T10:10:47;15.05;;;5.75;;
56481;SDS011;42384;45.186;19.958;2024-01-06T10:13:16;10.52;;;5.55;;
56481;SDS011;42384;45.186;19.958;2024-01-06T10:15:43;14.73;;;5.82;;
56481;SDS011;42384;45.186;19.958;2024-01-06T10:18:09;17.33;;;10.03;;
56481;SDS011;42384;45.186;19.958;2024-01-06T10:20:36;15.70;;;6.60;;
56481;SDS011;42384;45.186;19.958;2024-01-06T10:25:28;16.67;;;7.30;;
56481;SDS011;42384;45.186;19.958;2024-01-06T10:27:54;14.73;;;6.97;;
56481;SDS011;42384;45.186;19.958;2024-01-06T10:30:20;11.33;;;6.37;;
56481;SDS011;42384;45.186;19.958;2024-01-06T10:32:46;15.03;;;6.47;;
56481;SDS011;42384;45.186;19.958;2024-01-06T10:35:12;16.20;;;7.73;;
56481;SDS011;42384;45.186;19.958;2024-01-06T10:37:41;12.87;;;6.20;;
56481;SDS011;42384;45.186;19.958;2024-01-06T10:40:08;13.27;;;6.82;;
56481;SDS011;42384;45.186;19.958;2024-01-06T10:42:35;13.00;;;7.70;;
56481;SDS011;42384;45.186;19.958;2024-01-06T10:45:03;12.38;;;7.05;;
56481;SDS011;42384;45.186;19.958;2024-01-06T10:47:30;15.82;;;8.55;;
56481;SDS011;42384;45.186;19.958;2024-01-06T10:49:58;16.65;;;8.45;;
56481;SDS011;42384;45.186;19.958;2024-01-06T10:54:51;17.25;;;7.85;;
56481;SDS011;42384;45.186;19.958;2024-01-06T10:57:19;16.02;;;8.48;;
56481;SDS011;42384;45.186;19.958;2024-01-06T10:59:45;12.18;;;7.22;;
56481;SDS011;42384;45.186;19.958;2024-01-06T11:02:15;11.77;;;7.50;;
56481;SDS011;42384;45.186;19.958;2024-01-06T11:04:42;13.82;;;7.10;;
56481;SDS011;42384;45.186;19.958;2024-01-06T11:07:08;17.73;;;7.38;;
56481;SDS011;42384;45.186;19.958;2024-01-06T11:09:35;11.10;;;6.53;;
56481;SDS011;42384;45.186;19.958;2024-01-06T11:12:03;11.98;;;7.32;;
56481;SDS011;42384;45.186;19.958;2024-01-06T11:14:29;12.00;;;7.75;;
56481;SDS011;42384;45.186;19.958;2024-01-06T11:16:58;14.32;;;7.57;;
56481;SDS011;42384;45.186;19.958;2024-01-06T11:24:48;13.60;;;7.97;;
56481;SDS011;42384;45.186;19.958;2024-01-06T11:27:21;12.88;;;8.48;;
56481;SDS011;42384;45.186;19.958;2024-01-06T11:29:48;15.18;;;8.52;;
56481;SDS011;42384;45.186;19.958;2024-01-06T11:32:26;15.43;;;9.70;;
56481;SDS011;42384;45.186;19.958;2024-01-06T11:34:53;15.75;;;8.65;;
56481;SDS011;42384;45.186;19.958;2024-01-06T11:37:37;15.55;;;8.65;;
56481;SDS011;42384;45.186;19.958;2024-01-06T11:42:46;26.35;;;12.20;;
56481;SDS011;42384;45.186;19.958;2024-01-06T11:45:13;18.20;;;9.55;;
56481;SDS011;42384;45.186;19.958;2024-01-06T11:47:40;19.17;;;9.95;;
56481;SDS011;42384;45.186;19.958;2024-01-06T11:50:06;16.42;;;9.15;;
56481;SDS011;42384;45.186;19.958;2024-01-06T11:52:33;17.83;;;10.75;;
56481;SDS011;42384;45.186;19.958;2024-01-06T11:54:59;14.93;;;8.60;;
56481;SDS011;42384;45.186;19.958;2024-01-06T11:57:26;18.00;;;9.98;;
56481;SDS011;42384;45.186;19.958;2024-01-06T11:59:52;14.82;;;8.38;;
56481;SDS011;42384;45.186;19.958;2024-01-06T12:02:18;18.60;;;9.57;;
56481;SDS011;42384;45.186;19.958;2024-01-06T12:04:48;17.35;;;9.45;;
56481;SDS011;42384;45.186;19.958;2024-01-06T12:07:16;18.80;;;10.15;;
56481;SDS011;42384;45.186;19.958;2024-01-06T12:09:42;18.50;;;10.13;;
56481;SDS011;42384;45.186;19.958;2024-01-06T12:12:08;20.52;;;11.93;;
56481;SDS011;42384;45.186;19.958;2024-01-06T12:17:01;20.98;;;11.90;;
56481;SDS011;42384;45.186;19.958;2024-01-06T12:19:31;18.17;;;11.05;;
56481;SDS011;42384;45.186;19.958;2024-01-06T12:21:58;20.73;;;11.80;;
56481;SDS011;42384;45.186;19.958;2024-01-06T12:24:26;20.80;;;10.38;;
56481;SDS011;42384;45.186;19.958;2024-01-06T12:26:52;17.55;;;9.65;;
56481;SDS011;42384;45.186;19.958;2024-01-06T12:29:19;24.90;;;12.03;;
56481;SDS011;42384;45.186;19.958;2024-01-06T12:31:45;21.00;;;11.93;;
56481;SDS011;42384;45.186;19.958;2024-01-06T12:34:12;23.15;;;10.57;;
56481;SDS011;42384;45.186;19.958;2024-01-06T12:36:38;17.53;;;9.10;;
56481;SDS011;42384;45.186;19.958;2024-01-06T12:39:04;17.20;;;8.55;;
56481;SDS011;42384;45.186;19.958;2024-01-06T12:41:31;17.83;;;9.18;;
56481;SDS011;42384;45.186;19.958;2024-01-06T12:44:00;16.38;;;9.15;;
56481;SDS011;42384;45.186;19.958;2024-01-06T12:46:27;14.90;;;8.77;;
56481;SDS011;42384;45.186;19.958;2024-01-06T12:48:53;19.88;;;9.05;;
56481;SDS011;42384;45.186;19.958;2024-01-06T12:51:19;13.77;;;8.50;;
56481;SDS011;42384;45.186;19.958;2024-01-06T12:53:45;19.87;;;11.00;;
56481;SDS011;42384;45.186;19.958;2024-01-06T12:56:11;21.75;;;11.40;;
56481;SDS011;42384;45.186;19.958;2024-01-06T12:58:40;20.63;;;12.02;;
56481;SDS011;42384;45.186;19.958;2024-01-06T13:01:06;26.88;;;13.40;;
56481;SDS011;42384;45.186;19.958;2024-01-06T13:03:32;23.60;;;13.00;;
56481;SDS011;42384;45.186;19.958;2024-01-06T13:05:59;22.92;;;12.65;;
56481;SDS011;42384;45.186;19.958;2024-01-06T13:08:25;23.38;;;13.45;;
56481;SDS011;42384;45.186;19.958;2024-01-06T13:13:18;18.60;;;12.23;;
56481;SDS011;42384;45.186;19.958;2024-01-06T13:15:44;21.60;;;11.13;;
56481;SDS011;42384;45.186;19.958;2024-01-06T13:18:11;18.35;;;11.82;;
56481;SDS011;42384;45.186;19.958;2024-01-06T13:20:38;19.48;;;12.18;;
56481;SDS011;42384;45.186;19.958;2024-01-06T13:23:06;21.38;;;12.48;;
56481;SDS011;42384;45.186;19.958;2024-01-06T13:25:32;20.20;;;12.07;;
56481;SDS011;42384;45.186;19.958;2024-01-06T13:27:58;20.60;;;12.10;;
56481;SDS011;42384;45.186;19.958;2024-01-06T13:30:25;27.33;;;12.90;;
56481;SDS011;42384;45.186;19.958;2024-01-06T13:32:54;16.73;;;11.15;;
56481;SDS011;42384;45.186;19.958;2024-01-06T13:35:20;21.98;;;10.95;;
56481;SDS011;42384;45.186;19.958;2024-01-06T13:37:50;18.15;;;12.02;;
56481;SDS011;42384;45.186;19.958;2024-01-06T13:40:16;21.83;;;11.45;;
56481;SDS011;42384;45.186;19.958;2024-01-06T13:42:46;30.05;;;15.88;;
56481;SDS011;42384;45.186;19.958;2024-01-06T13:45:12;33.08;;;16.92;;
56481;SDS011;42384;45.186;19.958;2024-01-06T13:47:39;19.67;;;11.43;;
56481;SDS011;42384;45.186;19.958;2024-01-06T13:50:13;27.08;;;13.27;;
56481;SDS011;42384;45.186;19.958;2024-01-06T13:52:39;20.48;;;12.07;;
56481;SDS011;42384;45.186;19.958;2024-01-06T13:55:05;21.13;;;13.63;;
56481;SDS011;42384;45.186;19.958;2024-01-06T13:57:33;19.15;;;12.35;;
56481;SDS011;42384;45.186;19.958;2024-01-06T14:00:00;20.20;;;11.93;;
56481;SDS011;42384;45.186;19.958;2024-01-06T14:02:26;20.65;;;11.60;;
56481;SDS011;42384;45.186;19.958;2024-01-06T14:04:52;21.60;;;10.90;;
56481;SDS011;42384;45.186;19.958;2024-01-06T14:07:19;15.85;;;10.43;;
56481;SDS011;42384;45.186;19.958;2024-01-06T14:09:46;20.45;;;11.70;;
56481;SDS011;42384;45.186;19.958;2024-01-06T14:12:12;15.27;;;9.50;;
56481;SDS011;42384;45.186;19.958;2024-01-06T14:14:39;15.77;;;8.93;;
56481;SDS011;42384;45.186;19.958;2024-01-06T14:17:06;13.82;;;9.35;;
56481;SDS011;42384;45.186;19.958;2024-01-06T14:19:33;16.00;;;9.55;;
56481;SDS011;42384;45.186;19.958;2024-01-06T14:21:59;17.17;;;8.30;;
56481;SDS011;42384;45.186;19.958;2024-01-06T14:24:25;16.10;;;8.30;;
56481;SDS011;42384;45.186;19.958;2024-01-06T14:26:54;18.17;;;8.27;;
56481;SDS011;42384;45.186;19.958;2024-01-06T14:29:21;19.92;;;7.95;;
56481;SDS011;42384;45.186;19.958;2024-01-06T14:31:48;16.20;;;9.85;;
56481;SDS011;42384;45.186;19.958;2024-01-06T14:34:14;17.08;;;9.20;;
56481;SDS011;42384;45.186;19.958;2024-01-06T14:36:41;14.68;;;8.82;;
56481;SDS011;42384;45.186;19.958;2024-01-06T14:39:15;18.42;;;9.27;;
56481;SDS011;42384;45.186;19.958;2024-01-06T14:41:41;19.13;;;9.43;;
56481;SDS011;42384;45.186;19.958;2024-01-06T14:44:08;13.55;;;7.88;;
56481;SDS011;42384;45.186;19.958;2024-01-06T14:46:35;17.67;;;9.52;;
56481;SDS011;42384;45.186;19.958;2024-01-06T14:49:04;11.77;;;7.57;;
56481;SDS011;42384;45.186;19.958;2024-01-06T14:51:30;11.95;;;7.82;;
56481;SDS011;42384;45.186;19.958;2024-01-06T14:53:56;39.53;;;26.58;;